createdAt,value
2024-02-09T00:00:46.894Z,52.05
2024-02-09T00:01:46.923Z,52.18
2024-02-09T00:02:47.003Z,50.62
2024-02-09T00:03:47.043Z,52.97
2024-02-09T00:04:47.140Z,53.35
2024-02-09T00:05:46.982Z,51.25
2024-02-09T00:06:47.149Z,50.00
2024-02-09T00:07:47.365Z,50.69
2024-02-09T00:08:47.184Z,50.14
2024-02-09T00:09:47.116Z,52.88
2024-02-09T00:10:47.158Z,51.75
2024-02-09T00:11:47.166Z,54.08
2024-02-09T00:12:47.220Z,58.24
2024-02-09T00:13:47.249Z,52.57
2024-02-09T00:14:47.271Z,51.66
2024-02-09T00:15:47.654Z,50.52
2024-02-09T00:16:47.383Z,53.02
2024-02-09T00:17:47.757Z,51.26
2024-02-09T00:18:47.457Z,59.67
2024-02-09T00:19:47.442Z,53.69
2024-02-09T00:20:47.428Z,54.12
2024-02-09T00:21:47.486Z,52.38
2024-02-09T00:22:47.529Z,53.96
2024-02-09T00:23:47.552Z,53.59
2024-02-09T00:24:48.069Z,50.85
2024-02-09T00:25:47.637Z,52.17
2024-02-09T00:26:47.618Z,51.45
2024-02-09T00:27:47.651Z,51.55
2024-02-09T00:28:47.733Z,54.41
2024-02-09T00:29:47.714Z,53.96
2024-02-09T00:30:47.744Z,51.87
2024-02-09T00:31:47.757Z,57.63
2024-02-09T00:32:47.987Z,52.66
2024-02-09T00:33:47.938Z,54.64
2024-02-09T00:34:47.859Z,50.28
2024-02-09T00:35:47.935Z,56.29
2024-02-09T00:36:47.923Z,53.89
2024-02-09T00:37:47.952Z,53.43
2024-02-09T00:38:47.972Z,52.18
2024-02-09T00:39:48.010Z,54.61
2024-02-09T00:40:48.066Z,51.60
2024-02-09T00:41:48.074Z,57.60
2024-02-09T00:42:48.103Z,56.47
2024-02-09T00:43:48.144Z,57.53
2024-02-09T00:44:48.166Z,51.55
2024-02-09T00:45:48.204Z,53.88
2024-02-09T00:46:48.270Z,52.21
2024-02-09T00:47:48.333Z,50.99
2024-02-09T00:48:48.309Z,53.52
2024-02-09T00:49:48.433Z,55.04
2024-02-09T00:50:49.324Z,54.32
2024-02-09T00:51:48.359Z,55.10
2024-02-09T00:52:48.328Z,53.96
2024-02-09T00:53:48.317Z,52.75
2024-02-09T00:54:48.322Z,55.24
2024-02-09T00:55:48.361Z,52.49
2024-02-09T00:56:48.324Z,55.70
2024-02-09T00:57:48.330Z,51.93
2024-02-09T00:58:48.400Z,59.07
2024-02-09T00:59:48.317Z,51.72
2024-02-09T01:00:48.343Z,52.42
2024-02-09T01:01:57.716Z,50.66
2024-02-09T01:02:49.344Z,50.85
2024-02-09T01:03:48.344Z,51.85
2024-02-09T01:04:48.449Z,51.17
2024-02-09T01:05:48.494Z,51.78
2024-02-09T01:06:48.367Z,54.38
2024-02-09T01:07:48.397Z,50.00
2024-02-09T01:08:48.344Z,54.45
2024-02-09T01:09:48.354Z,57.51
2024-02-09T01:10:48.488Z,50.00
2024-02-09T01:11:48.335Z,51.78
2024-02-09T01:12:48.331Z,54.11
2024-02-09T01:13:48.342Z,53.19
2024-02-09T01:14:48.350Z,52.54
2024-02-09T01:15:48.359Z,52.41
2024-02-09T01:16:48.395Z,50.00
2024-02-09T01:17:48.371Z,56.98
2024-02-09T01:18:48.386Z,52.20
2024-02-09T01:19:48.399Z,54.33
2024-02-09T01:20:48.379Z,52.94
2024-02-09T01:21:48.398Z,54.22
2024-02-09T01:22:48.438Z,54.78
2024-02-09T01:23:48.482Z,52.96
2024-02-09T01:24:48.494Z,50.99
2024-02-09T01:25:48.532Z,55.50
2024-02-09T01:26:48.569Z,54.03
2024-02-09T01:27:48.617Z,54.62
2024-02-09T01:28:48.644Z,53.84
2024-02-09T01:29:48.695Z,54.98
2024-02-09T01:30:48.698Z,54.83
2024-02-09T01:31:48.743Z,53.75
2024-02-09T01:32:48.846Z,56.01
2024-02-09T01:33:48.885Z,55.64
2024-02-09T01:34:49.008Z,50.95
2024-02-09T01:35:48.932Z,53.48
2024-02-09T01:36:48.918Z,54.76
2024-02-09T01:37:48.951Z,51.24
2024-02-09T01:38:48.973Z,53.78
2024-02-09T01:39:49.006Z,56.48
2024-02-09T01:40:49.034Z,51.09
2024-02-09T01:41:49.075Z,53.00
2024-02-09T01:42:49.109Z,55.61
2024-02-09T01:43:49.142Z,51.20
2024-02-09T01:44:49.172Z,54.53
2024-02-09T01:46:00.816Z,51.39
2024-02-09T01:46:49.381Z,51.64
2024-02-09T01:47:49.524Z,52.26
2024-02-09T01:48:49.522Z,54.20
2024-02-09T01:49:49.508Z,56.41
2024-02-09T01:50:49.499Z,57.19
2024-02-09T01:51:49.509Z,56.54
2024-02-09T01:52:49.628Z,60.57
2024-02-09T01:53:49.584Z,61.67
2024-02-09T01:54:49.670Z,53.57
2024-02-09T01:55:49.688Z,53.14
2024-02-09T01:56:49.693Z,55.01
2024-02-09T01:57:49.739Z,54.39
2024-02-09T01:58:49.782Z,50.83
2024-02-09T01:59:49.827Z,52.88
2024-02-09T02:00:49.880Z,57.34
2024-02-09T02:01:49.998Z,55.44
2024-02-09T02:02:49.939Z,58.23
2024-02-09T02:03:50.055Z,52.10
2024-02-09T02:04:50.162Z,54.09
2024-02-09T02:05:50.104Z,52.92
2024-02-09T02:06:50.095Z,52.15
2024-02-09T02:07:50.174Z,55.24
2024-02-09T02:08:50.183Z,55.74
2024-02-09T02:09:50.230Z,55.17
2024-02-09T02:10:50.253Z,51.77
2024-02-09T02:11:50.305Z,54.22
2024-02-09T02:12:50.359Z,53.98
2024-02-09T02:13:50.386Z,51.67
2024-02-09T02:14:50.437Z,55.62
2024-02-09T02:15:50.477Z,53.78
2024-02-09T02:16:50.561Z,53.76
2024-02-09T02:17:50.634Z,51.72
2024-02-09T02:18:50.630Z,52.37
2024-02-09T02:19:50.664Z,57.56
2024-02-09T02:20:50.688Z,54.96
2024-02-09T02:21:50.695Z,56.82
2024-02-09T02:22:50.758Z,58.09
2024-02-09T02:23:50.824Z,55.56
2024-02-09T02:24:50.797Z,56.12
2024-02-09T02:25:50.866Z,52.08
2024-02-09T02:26:50.883Z,58.71
2024-02-09T02:27:50.930Z,54.96
2024-02-09T02:28:50.976Z,59.38
2024-02-09T02:29:51.003Z,52.71
2024-02-09T02:30:51.044Z,56.36
2024-02-09T02:31:51.093Z,58.79
2024-02-09T02:32:51.165Z,56.82
2024-02-09T02:33:51.299Z,55.16
2024-02-09T02:34:51.270Z,56.99
2024-02-09T02:35:51.250Z,59.80
2024-02-09T02:36:51.294Z,57.18
2024-02-09T02:37:51.332Z,53.59
2024-02-09T02:38:51.361Z,55.89
2024-02-09T02:39:51.422Z,54.74
2024-02-09T02:40:51.460Z,52.22
2024-02-09T02:41:51.472Z,53.88
2024-02-09T02:42:51.540Z,53.38
2024-02-09T02:43:51.601Z,51.48
2024-02-09T02:44:51.654Z,57.40
2024-02-09T02:45:51.671Z,54.73
2024-02-09T02:46:51.715Z,55.66
2024-02-09T02:47:51.759Z,55.52
2024-02-09T02:48:51.808Z,57.56
2024-02-09T02:49:51.883Z,56.52
2024-02-09T02:50:51.881Z,53.29
2024-02-09T02:51:51.899Z,53.97
2024-02-09T02:52:51.953Z,57.11
2024-02-09T02:53:51.990Z,53.94
2024-02-09T02:54:52.029Z,57.42
2024-02-09T02:55:52.078Z,53.88
2024-02-09T02:56:52.117Z,59.06
2024-02-09T02:57:52.187Z,56.43
2024-02-09T02:58:52.228Z,53.19
2024-02-09T02:59:52.262Z,54.56
2024-02-09T03:00:52.357Z,54.11
2024-02-09T03:01:52.374Z,51.43
2024-02-09T03:02:52.391Z,55.80
2024-02-09T03:03:52.481Z,52.55
2024-02-09T03:04:52.614Z,54.60
2024-02-09T03:05:52.608Z,54.25
2024-02-09T03:07:13.653Z,60.00
2024-02-09T03:08:33.128Z,58.80
2024-02-09T03:08:53.658Z,55.91
2024-02-09T03:09:52.629Z,58.85
2024-02-09T03:10:52.648Z,59.39
2024-02-09T03:11:52.593Z,58.54
2024-02-09T03:12:52.600Z,53.89
2024-02-09T03:13:52.599Z,56.41
2024-02-09T03:14:52.608Z,56.77
2024-02-09T03:15:52.614Z,58.60
2024-02-09T03:16:52.596Z,57.60
2024-02-09T03:17:52.646Z,53.99
2024-02-09T03:18:52.620Z,58.48
2024-02-09T03:19:52.681Z,56.48
2024-02-09T03:20:52.609Z,50.47
2024-02-09T03:21:52.596Z,54.58
2024-02-09T03:22:52.626Z,55.43
2024-02-09T03:23:52.594Z,57.50
2024-02-09T03:24:52.606Z,55.71
2024-02-09T03:25:52.612Z,57.30
2024-02-09T03:26:52.626Z,52.61
2024-02-09T03:27:52.611Z,52.44
2024-02-09T03:28:52.631Z,56.95
2024-02-09T03:29:52.608Z,54.10
2024-02-09T03:30:52.629Z,54.43
2024-02-09T03:31:52.618Z,58.38
2024-02-09T03:32:52.884Z,52.11
2024-02-09T03:33:52.670Z,50.00
2024-02-09T03:34:52.731Z,50.16
2024-02-09T03:35:52.738Z,56.46
2024-02-09T03:36:52.623Z,51.20
2024-02-09T03:37:52.630Z,57.72
2024-02-09T03:38:52.627Z,51.79
2024-02-09T03:39:52.642Z,55.36
2024-02-09T03:40:57.742Z,53.45
2024-02-09T03:41:52.691Z,53.45
2024-02-09T03:42:52.712Z,53.88
2024-02-09T03:43:52.748Z,53.94
2024-02-09T03:44:52.710Z,52.85
2024-02-09T03:45:52.720Z,55.08
2024-02-09T03:46:52.719Z,57.10
2024-02-09T03:47:52.767Z,56.50
2024-02-09T03:48:52.756Z,54.77
2024-02-09T03:49:52.783Z,53.15
2024-02-09T03:50:52.713Z,53.18
2024-02-09T03:51:52.711Z,51.13
2024-02-09T03:52:52.713Z,52.51
2024-02-09T03:53:52.714Z,51.82
2024-02-09T03:54:52.767Z,52.69
2024-02-09T03:55:52.836Z,53.38
2024-02-09T03:56:52.841Z,53.00
2024-02-09T03:57:52.865Z,51.72
2024-02-09T03:58:52.921Z,52.46
2024-02-09T03:59:52.917Z,54.25
2024-02-09T04:00:53.024Z,50.01
2024-02-09T04:01:53.015Z,51.92
2024-02-09T04:02:53.002Z,52.69
2024-02-09T04:03:53.144Z,53.66
2024-02-09T04:04:53.092Z,53.24
2024-02-09T04:05:53.151Z,50.55
2024-02-09T04:06:53.084Z,51.09
2024-02-09T04:07:53.080Z,52.13
2024-02-09T04:08:53.112Z,53.61
2024-02-09T04:10:15.068Z,53.54
2024-02-09T04:10:54.161Z,53.58
2024-02-09T04:11:53.154Z,53.78
2024-02-09T04:12:53.150Z,54.11
2024-02-09T04:13:53.151Z,55.23
2024-02-09T04:14:53.147Z,57.40
2024-02-09T04:15:53.130Z,57.35
2024-02-09T04:16:53.146Z,56.29
2024-02-09T04:17:53.315Z,55.56
2024-02-09T04:18:53.149Z,55.37
2024-02-09T04:19:53.158Z,57.12
2024-02-09T04:20:53.141Z,56.57
2024-02-09T04:21:53.122Z,54.49
2024-02-09T04:22:53.128Z,57.31
2024-02-09T04:23:53.122Z,54.75
2024-02-09T04:24:53.132Z,55.06
2024-02-09T04:25:53.132Z,56.31
2024-02-09T04:26:53.156Z,56.64
2024-02-09T04:27:53.215Z,54.91
2024-02-09T04:28:53.152Z,55.46
2024-02-09T04:29:53.160Z,56.25
2024-02-09T04:30:53.156Z,56.79
2024-02-09T04:31:53.139Z,56.74
2024-02-09T04:33:00.468Z,50.00
2024-02-09T04:34:00.554Z,50.00
2024-02-09T04:35:00.480Z,50.00
2024-02-09T04:36:00.645Z,50.00
2024-02-09T04:37:00.389Z,50.00
2024-02-09T04:38:00.389Z,50.00
2024-02-09T04:39:00.422Z,52.11
2024-02-09T04:40:00.478Z,52.16
2024-02-09T04:41:00.461Z,53.96
2024-02-09T04:42:00.460Z,52.63
2024-02-09T04:43:00.415Z,51.95
2024-02-09T04:44:00.448Z,52.53
2024-02-09T04:45:00.402Z,51.72
2024-02-09T04:46:00.462Z,54.45
2024-02-09T04:47:00.413Z,50.88
2024-02-09T04:48:00.645Z,51.42
2024-02-09T04:49:00.553Z,51.49
2024-02-09T04:50:00.500Z,53.00
2024-02-09T04:51:00.397Z,50.64
2024-02-09T04:52:00.437Z,51.74
2024-02-09T04:53:00.430Z,53.76
2024-02-09T04:54:00.470Z,51.94
2024-02-09T04:55:00.748Z,52.67
2024-02-09T04:56:00.614Z,52.58
2024-02-09T04:57:00.680Z,52.80
2024-02-09T04:58:00.784Z,51.73
2024-02-09T04:59:00.830Z,53.26
2024-02-09T05:00:00.914Z,54.17
2024-02-09T05:01:01.078Z,52.78
2024-02-09T05:02:01.143Z,51.30
2024-02-09T05:03:01.096Z,53.11
2024-02-09T05:04:01.294Z,51.59
2024-02-09T05:05:01.407Z,51.69
2024-02-09T05:06:01.348Z,52.29
2024-02-09T05:07:01.414Z,52.18
2024-02-09T05:08:01.472Z,55.42
2024-02-09T05:09:01.539Z,54.51
2024-02-09T05:10:01.657Z,51.79
2024-02-09T05:11:01.666Z,55.68
2024-02-09T05:12:01.748Z,52.67
2024-02-09T05:13:01.819Z,54.76
2024-02-09T05:14:01.864Z,53.16
2024-02-09T05:15:01.916Z,54.87
2024-02-09T05:16:02.022Z,51.00
2024-02-09T05:17:02.040Z,54.17
2024-02-09T05:18:02.171Z,54.03
2024-02-09T05:19:02.276Z,54.80
2024-02-09T05:20:02.365Z,54.04
2024-02-09T05:21:02.323Z,54.57
2024-02-09T05:22:02.415Z,54.56
2024-02-09T05:23:03.001Z,53.42
2024-02-09T05:24:02.546Z,52.63
2024-02-09T05:25:02.656Z,53.38
2024-02-09T05:26:06.110Z,50.73
2024-02-09T05:27:02.697Z,54.52
2024-02-09T05:28:02.717Z,54.12
2024-02-09T05:29:02.689Z,53.39
2024-02-09T05:30:02.709Z,52.85
2024-02-09T05:31:02.778Z,52.63
2024-02-09T05:32:02.711Z,53.67
2024-02-09T05:33:02.756Z,52.81
2024-02-09T05:34:02.784Z,53.34
2024-02-09T05:35:02.816Z,52.58
2024-02-09T05:36:02.691Z,51.59
2024-02-09T05:37:02.736Z,53.57
2024-02-09T05:38:02.704Z,52.70
2024-02-09T05:39:02.752Z,55.18
2024-02-09T05:40:02.755Z,53.79
2024-02-09T05:41:02.689Z,53.76
2024-02-09T05:42:02.697Z,53.87
2024-02-09T05:43:02.777Z,53.95
2024-02-09T05:44:02.720Z,54.91
2024-02-09T05:45:02.684Z,54.23
2024-02-09T05:46:02.746Z,54.17
2024-02-09T05:47:02.691Z,51.21
2024-02-09T05:48:02.751Z,53.76
2024-02-09T05:49:02.806Z,53.14
2024-02-09T05:50:02.863Z,55.24
2024-02-09T05:51:02.693Z,54.82
2024-02-09T05:52:02.762Z,55.09
2024-02-09T05:53:02.797Z,52.01
2024-02-09T05:54:02.881Z,52.56
2024-02-09T05:55:02.992Z,52.20
2024-02-09T05:56:03.020Z,52.97
2024-02-09T05:57:03.069Z,51.87
2024-02-09T05:58:03.157Z,54.13
2024-02-09T05:59:03.834Z,53.73
2024-02-09T06:00:03.271Z,52.85
2024-02-09T06:01:03.417Z,53.75
2024-02-09T06:02:03.478Z,52.36
2024-02-09T06:03:03.484Z,52.55
2024-02-09T06:04:03.730Z,52.59
2024-02-09T06:05:03.689Z,50.73
2024-02-09T06:06:03.805Z,50.75
2024-02-09T06:07:03.837Z,51.06
2024-02-09T06:08:03.818Z,52.89
2024-02-09T06:09:03.934Z,51.72
2024-02-09T06:10:03.993Z,51.82
2024-02-09T06:11:04.106Z,53.85
2024-02-09T06:12:04.114Z,52.66
2024-02-09T06:13:04.303Z,52.40
2024-02-09T06:14:04.273Z,52.51
2024-02-09T06:15:04.352Z,53.78
2024-02-09T06:16:04.470Z,55.17
2024-02-09T06:17:04.470Z,53.24
2024-02-09T06:18:04.585Z,53.85
2024-02-09T06:19:04.765Z,51.79
2024-02-09T06:20:04.745Z,53.89
2024-02-09T06:21:05.013Z,51.89
2024-02-09T06:22:04.835Z,52.81
2024-02-09T06:23:04.910Z,52.39
2024-02-09T06:24:04.973Z,55.10
2024-02-09T06:25:05.091Z,51.93
2024-02-09T06:26:05.109Z,52.05
2024-02-09T06:27:05.172Z,54.15
2024-02-09T06:28:05.267Z,53.53
2024-02-09T06:29:05.333Z,54.01
2024-02-09T06:30:05.384Z,52.25
2024-02-09T06:31:05.576Z,53.44
2024-02-09T06:32:05.527Z,52.81
2024-02-09T06:33:05.687Z,54.85
2024-02-09T06:34:05.755Z,52.35
2024-02-09T06:35:06.148Z,53.21
2024-02-09T06:36:05.814Z,54.22
2024-02-09T06:37:05.968Z,52.63
2024-02-09T06:38:05.974Z,52.84
2024-02-09T06:39:06.006Z,52.54
2024-02-09T06:40:06.146Z,50.90
2024-02-09T06:41:06.149Z,51.34
2024-02-09T06:42:06.196Z,52.01
2024-02-09T06:43:06.359Z,54.94
2024-02-09T06:44:06.334Z,55.57
2024-02-09T06:45:06.388Z,55.83
2024-02-09T06:46:06.492Z,57.64
2024-02-09T06:47:06.509Z,58.40
2024-02-09T06:48:06.580Z,73.17
2024-02-09T06:49:06.910Z,91.33
2024-02-09T06:50:06.696Z,104.90
2024-02-09T06:51:06.733Z,104.73
2024-02-09T06:52:06.697Z,102.16
2024-02-09T06:53:06.810Z,94.98
2024-02-09T06:54:06.792Z,84.44
2024-02-09T06:55:06.845Z,74.66
2024-02-09T06:56:06.884Z,68.47
2024-02-09T06:57:06.897Z,62.24
2024-02-09T06:58:06.963Z,56.42
2024-02-09T06:59:06.912Z,53.94
2024-02-09T07:00:06.922Z,51.08
2024-02-09T07:01:07.138Z,51.19
2024-02-09T07:02:07.123Z,54.09
2024-02-09T07:03:07.154Z,60.71
2024-02-09T07:04:07.179Z,56.88
2024-02-09T07:05:07.195Z,58.25
2024-02-09T07:06:07.232Z,59.14
2024-02-09T07:07:07.302Z,60.34
2024-02-09T07:08:07.241Z,61.44
2024-02-09T07:09:07.325Z,63.70
2024-02-09T07:10:07.293Z,66.12
2024-02-09T07:11:07.323Z,67.95
2024-02-09T07:12:07.387Z,74.61
2024-02-09T07:13:07.538Z,77.94
2024-02-09T07:14:07.507Z,80.81
2024-02-09T07:15:07.691Z,85.53
2024-02-09T07:16:07.674Z,88.52
2024-02-09T07:17:07.679Z,94.60
2024-02-09T07:18:07.714Z,96.22
2024-02-09T07:19:07.789Z,102.12
2024-02-09T07:20:07.829Z,107.61
2024-02-09T07:21:07.798Z,113.15
2024-02-09T07:22:07.881Z,118.13
2024-02-09T07:23:07.855Z,120.88
2024-02-09T07:24:09.570Z,125.15
2024-02-09T07:25:08.030Z,130.00
2024-02-09T07:26:07.898Z,134.31
2024-02-09T07:27:07.926Z,135.96
2024-02-09T07:28:07.970Z,138.82
2024-02-09T07:29:07.938Z,143.79
2024-02-09T07:30:07.963Z,146.02
2024-02-09T07:31:07.978Z,150.28
2024-02-09T07:32:07.939Z,154.71
2024-02-09T07:33:08.048Z,159.74
2024-02-09T07:34:08.052Z,165.12
2024-02-09T07:35:08.060Z,166.71
2024-02-09T07:36:08.486Z,168.73
2024-02-09T07:37:08.085Z,174.73
2024-02-09T07:38:08.102Z,176.06
2024-02-09T07:39:08.166Z,179.94
2024-02-09T07:40:08.259Z,188.35
2024-02-09T07:41:08.302Z,189.48
2024-02-09T07:42:08.333Z,192.64
2024-02-09T07:43:08.452Z,196.60
2024-02-09T07:44:08.436Z,199.86
2024-02-09T07:45:08.456Z,199.19
2024-02-09T07:46:08.540Z,199.45
2024-02-09T07:47:08.494Z,200.00
2024-02-09T07:48:08.749Z,200.13
2024-02-09T07:49:08.614Z,199.13
2024-02-09T07:50:08.601Z,200.00
2024-02-09T07:51:08.631Z,199.12
2024-02-09T07:52:08.720Z,199.81
2024-02-09T07:53:08.753Z,200.04
2024-02-09T07:54:08.797Z,199.97
2024-02-09T07:55:09.255Z,200.00
2024-02-09T07:56:08.893Z,198.84
2024-02-09T07:57:08.893Z,200.00
2024-02-09T07:58:08.968Z,197.32
2024-02-09T07:59:08.942Z,195.81
2024-02-09T08:00:09.009Z,191.23
2024-02-09T08:01:09.116Z,185.77
2024-02-09T08:02:09.216Z,184.20
2024-02-09T08:03:09.102Z,177.57
2024-02-09T08:04:09.237Z,173.94
2024-02-09T08:05:09.426Z,166.45
2024-02-09T08:06:09.291Z,161.79
2024-02-09T08:07:09.332Z,154.73
2024-02-09T08:08:09.407Z,152.48
2024-02-09T08:09:09.416Z,147.35
2024-02-09T08:10:09.545Z,141.96
2024-02-09T08:11:09.535Z,139.38
2024-02-09T08:12:12.578Z,140.19
2024-02-09T08:13:09.617Z,140.27
2024-02-09T08:14:09.606Z,140.35
2024-02-09T08:15:09.576Z,140.24
2024-02-09T08:16:09.575Z,141.02
2024-02-09T08:17:09.569Z,142.95
2024-02-09T08:18:09.614Z,141.30
2024-02-09T08:19:09.650Z,142.27
2024-02-09T08:20:09.618Z,144.11
2024-02-09T08:21:09.577Z,143.36
2024-02-09T08:22:09.583Z,144.70
2024-02-09T08:23:09.614Z,145.10
2024-02-09T08:24:11.159Z,144.53
2024-02-09T08:25:09.638Z,144.66
2024-02-09T08:26:09.581Z,146.50
2024-02-09T08:27:09.575Z,146.88
2024-02-09T08:28:09.616Z,145.89
2024-02-09T08:29:09.597Z,146.93
2024-02-09T08:30:09.597Z,149.03
2024-02-09T08:31:09.635Z,146.50
2024-02-09T08:32:09.592Z,149.80
2024-02-09T08:33:09.631Z,149.68
2024-02-09T08:34:09.776Z,148.68
2024-02-09T08:35:09.756Z,149.57
2024-02-09T08:36:09.603Z,150.21
2024-02-09T08:37:09.676Z,152.75
2024-02-09T08:38:09.577Z,151.47
2024-02-09T08:39:09.601Z,153.60
2024-02-09T08:40:09.645Z,153.77
2024-02-09T08:41:09.614Z,153.51
2024-02-09T08:42:09.625Z,154.38
2024-02-09T08:43:09.638Z,156.16
2024-02-09T08:44:09.589Z,156.40
2024-02-09T08:45:09.617Z,154.05
2024-02-09T08:46:09.607Z,157.15
2024-02-09T08:47:09.612Z,156.92
2024-02-09T08:48:09.625Z,155.66
2024-02-09T08:49:09.651Z,157.39
2024-02-09T08:50:09.656Z,157.79
2024-02-09T08:51:09.595Z,158.57
2024-02-09T08:52:09.616Z,158.51
2024-02-09T08:53:09.603Z,160.46
2024-02-09T08:54:09.584Z,159.48
2024-02-09T08:55:09.609Z,158.12
2024-02-09T08:56:09.585Z,158.00
2024-02-09T08:57:09.591Z,157.74
2024-02-09T08:58:09.636Z,159.70
2024-02-09T08:59:11.727Z,158.68
2024-02-09T09:00:09.613Z,158.70
2024-02-09T09:01:09.718Z,159.05
2024-02-09T09:02:09.697Z,158.91
2024-02-09T09:03:09.637Z,158.51
2024-02-09T09:04:09.624Z,157.48
2024-02-09T09:05:10.474Z,160.16
2024-02-09T09:06:09.704Z,157.95
2024-02-09T09:07:09.689Z,160.27
2024-02-09T09:08:09.593Z,158.79
2024-02-09T09:09:09.632Z,158.40
2024-02-09T09:10:09.698Z,158.04
2024-02-09T09:11:09.645Z,158.94
2024-02-09T09:12:12.113Z,157.38
2024-02-09T09:13:09.642Z,157.45
2024-02-09T09:14:09.595Z,157.50
2024-02-09T09:15:09.607Z,157.72
2024-02-09T09:16:09.645Z,155.76
2024-02-09T09:17:18.076Z,157.61
2024-02-09T09:18:10.664Z,157.41
2024-02-09T09:19:09.671Z,157.40
2024-02-09T09:20:09.636Z,156.12
2024-02-09T09:21:09.630Z,155.11
2024-02-09T09:22:09.641Z,157.66
2024-02-09T09:23:09.623Z,155.51
2024-02-09T09:24:09.611Z,155.32
2024-02-09T09:25:09.641Z,154.79
2024-02-09T09:26:17.486Z,154.79
2024-02-09T09:27:10.654Z,154.89
2024-02-09T09:28:09.646Z,155.02
2024-02-09T09:29:09.634Z,154.95
2024-02-09T09:30:09.618Z,155.01
2024-02-09T09:31:09.666Z,157.21
2024-02-09T09:32:09.628Z,153.69
2024-02-09T09:33:09.642Z,156.07
2024-02-09T09:34:09.674Z,152.46
2024-02-09T09:35:09.750Z,152.94
2024-02-09T09:36:09.674Z,154.02
2024-02-09T09:37:09.660Z,154.06
2024-02-09T09:38:09.624Z,154.08
2024-02-09T09:39:10.620Z,153.95
2024-02-09T09:40:09.816Z,151.80
2024-02-09T09:41:09.704Z,151.38
2024-02-09T09:42:09.660Z,152.40
2024-02-09T09:43:09.677Z,150.88
2024-02-09T09:44:09.664Z,151.59
2024-02-09T09:45:09.665Z,150.85
2024-02-09T09:46:09.830Z,149.65
2024-02-09T09:47:09.654Z,148.82
2024-02-09T09:48:09.711Z,148.66
2024-02-09T09:49:09.869Z,149.38
2024-02-09T09:50:09.804Z,147.70
2024-02-09T09:51:09.710Z,149.44
2024-02-09T09:52:09.727Z,149.54
2024-02-09T09:53:09.791Z,147.74
2024-02-09T09:54:09.674Z,149.08
2024-02-09T09:55:09.682Z,148.30
2024-02-09T09:56:09.732Z,146.58
2024-02-09T09:57:09.716Z,149.29
2024-02-09T09:58:09.763Z,147.25
2024-02-09T09:59:09.762Z,148.29
2024-02-09T10:00:09.778Z,147.42
2024-02-09T10:01:15.302Z,147.32
2024-02-09T10:02:09.826Z,147.38
2024-02-09T10:03:09.812Z,147.34
2024-02-09T10:04:09.845Z,147.04
2024-02-09T10:05:09.975Z,147.08
2024-02-09T10:06:10.058Z,147.25
2024-02-09T10:07:09.877Z,147.66
2024-02-09T10:08:09.927Z,144.72
2024-02-09T10:09:09.808Z,146.18
2024-02-09T10:10:09.855Z,145.64
2024-02-09T10:11:09.822Z,145.59
2024-02-09T10:12:09.820Z,144.67
2024-02-09T10:13:11.656Z,145.91
2024-02-09T10:14:09.798Z,146.61
2024-02-09T10:15:09.816Z,144.01
2024-02-09T10:16:09.860Z,146.05
2024-02-09T10:17:09.819Z,142.72
2024-02-09T10:18:09.896Z,143.80
2024-02-09T10:19:09.917Z,145.00
2024-02-09T10:20:09.816Z,145.60
2024-02-09T10:21:09.815Z,143.92
2024-02-09T10:22:16.127Z,143.05
2024-02-09T10:23:10.935Z,143.19
2024-02-09T10:24:11.294Z,143.32
2024-02-09T10:25:09.962Z,143.76
2024-02-09T10:26:09.839Z,143.34
2024-02-09T10:27:09.843Z,144.16
2024-02-09T10:28:09.861Z,143.39
2024-02-09T10:29:09.848Z,142.26
2024-02-09T10:30:09.832Z,141.86
2024-02-09T10:31:09.872Z,141.34
2024-02-09T10:32:09.872Z,142.58
2024-02-09T10:33:09.848Z,142.88
2024-02-09T10:34:10.035Z,142.81
2024-02-09T10:35:09.921Z,140.16
2024-02-09T10:36:09.995Z,141.04
2024-02-09T10:37:17.004Z,141.75
2024-02-09T10:38:11.021Z,141.83
2024-02-09T10:39:09.907Z,141.81
2024-02-09T10:40:09.894Z,140.46
2024-02-09T10:41:09.847Z,141.33
2024-02-09T10:42:09.854Z,139.82
2024-02-09T10:43:09.931Z,140.32
2024-02-09T10:44:09.884Z,141.16
2024-02-09T10:45:13.904Z,140.21
2024-02-09T10:46:10.909Z,140.25
2024-02-09T10:47:09.885Z,139.83
2024-02-09T10:48:09.943Z,139.29
2024-02-09T10:49:10.072Z,137.70
2024-02-09T10:50:09.991Z,135.50
2024-02-09T10:51:09.861Z,130.22
2024-02-09T10:52:09.887Z,124.03
2024-02-09T10:53:09.864Z,117.83
2024-02-09T10:54:09.920Z,111.63
2024-02-09T10:55:09.936Z,107.45
2024-02-09T10:56:09.895Z,105.99
2024-02-09T10:57:09.912Z,100.89
2024-02-09T10:58:09.944Z,96.75
2024-02-09T10:59:09.865Z,94.85
2024-02-09T11:00:09.872Z,92.70
2024-02-09T11:01:09.969Z,91.79
2024-02-09T11:02:09.998Z,91.41
2024-02-09T11:03:10.017Z,88.58
2024-02-09T11:04:10.150Z,87.70
2024-02-09T11:05:10.262Z,84.29
2024-02-09T11:06:10.262Z,83.85
2024-02-09T11:07:10.284Z,82.77
2024-02-09T11:08:10.352Z,84.94
2024-02-09T11:09:10.314Z,85.43
2024-02-09T11:10:10.396Z,86.31
2024-02-09T11:11:10.386Z,88.33
2024-02-09T11:12:10.430Z,89.24
2024-02-09T11:13:10.458Z,90.83
2024-02-09T11:14:10.663Z,91.91
2024-02-09T11:15:10.513Z,93.65
2024-02-09T11:16:10.642Z,93.00
2024-02-09T11:17:10.603Z,92.31
2024-02-09T11:18:10.611Z,93.65
2024-02-09T11:19:10.684Z,93.64
2024-02-09T11:20:10.665Z,94.64
2024-02-09T11:21:10.675Z,92.99
2024-02-09T11:22:10.812Z,93.08
2024-02-09T11:23:10.736Z,94.20
2024-02-09T11:24:10.748Z,93.62
2024-02-09T11:25:10.795Z,92.97
2024-02-09T11:26:10.801Z,96.54
2024-02-09T11:27:10.769Z,95.31
2024-02-09T11:28:10.809Z,97.28
2024-02-09T11:29:10.775Z,96.46
2024-02-09T11:30:10.803Z,98.42
2024-02-09T11:31:10.838Z,99.03
2024-02-09T11:32:10.841Z,99.42
2024-02-09T11:33:10.872Z,101.14
2024-02-09T11:34:11.040Z,103.96
2024-02-09T11:35:11.073Z,105.82
2024-02-09T11:36:11.064Z,107.29
2024-02-09T11:37:11.236Z,108.07
2024-02-09T11:38:11.224Z,112.01
2024-02-09T11:39:11.285Z,111.76
2024-02-09T11:40:11.437Z,114.50
2024-02-09T11:41:11.442Z,116.10
2024-02-09T11:42:12.056Z,116.01
2024-02-09T11:43:11.581Z,117.42
2024-02-09T11:44:11.654Z,118.42
2024-02-09T11:45:11.707Z,116.90
2024-02-09T11:46:11.837Z,119.96
2024-02-09T11:47:11.852Z,122.73
2024-02-09T11:48:11.976Z,126.60
2024-02-09T11:49:12.082Z,127.61
2024-02-09T11:50:12.065Z,129.09
2024-02-09T11:51:12.083Z,131.34
2024-02-09T11:52:12.157Z,129.90
2024-02-09T11:53:13.421Z,130.73
2024-02-09T11:54:12.214Z,132.23
2024-02-09T11:55:12.296Z,133.02
2024-02-09T11:56:12.307Z,133.26
2024-02-09T11:57:14.544Z,134.16
2024-02-09T11:58:12.438Z,135.94
2024-02-09T11:59:12.454Z,134.59
2024-02-09T12:00:12.443Z,135.30
2024-02-09T12:01:12.557Z,134.21
2024-02-09T12:02:12.583Z,133.99
2024-02-09T12:03:15.870Z,136.73
2024-02-09T12:04:12.699Z,136.03
2024-02-09T12:05:12.589Z,136.65
2024-02-09T12:06:12.487Z,135.63
2024-02-09T12:07:12.580Z,136.80
2024-02-09T12:08:12.565Z,134.98
2024-02-09T12:09:14.797Z,137.27
2024-02-09T12:10:12.643Z,135.32
2024-02-09T12:11:12.639Z,134.57
2024-02-09T12:12:12.702Z,136.25
2024-02-09T12:13:12.782Z,135.59
2024-02-09T12:14:12.756Z,135.87
2024-02-09T12:15:12.802Z,136.15
2024-02-09T12:16:12.874Z,133.36
2024-02-09T12:17:12.877Z,134.08
2024-02-09T12:18:13.061Z,134.61
2024-02-09T12:19:13.010Z,134.29
2024-02-09T12:20:13.036Z,133.28
2024-02-09T12:21:13.025Z,134.12
2024-02-09T12:22:13.135Z,135.98
2024-02-09T12:23:13.160Z,135.07
2024-02-09T12:24:13.228Z,133.43
2024-02-09T12:25:13.319Z,134.05
2024-02-09T12:26:13.331Z,133.79
2024-02-09T12:27:13.401Z,134.43
2024-02-09T12:28:13.561Z,133.84
2024-02-09T12:29:13.627Z,133.45
2024-02-09T12:30:13.639Z,131.37
2024-02-09T12:31:13.731Z,134.76
2024-02-09T12:32:13.777Z,134.39
2024-02-09T12:33:14.162Z,134.70
2024-02-09T12:34:14.141Z,133.20
2024-02-09T12:35:14.082Z,133.18
2024-02-09T12:36:14.052Z,134.03
2024-02-09T12:37:14.208Z,134.23
2024-02-09T12:38:14.184Z,134.07
2024-02-09T12:39:14.246Z,134.34
2024-02-09T12:40:14.323Z,132.70
2024-02-09T12:41:14.383Z,133.68
2024-02-09T12:42:14.456Z,132.98
2024-02-09T12:43:14.607Z,132.79
2024-02-09T12:44:14.589Z,132.65